Terminal Aerodrome Forecast
Issued by NWS

Home | Current Version | Previous Version | Text Only | Print | Product List | Glossary On
Versions: 1 2 3 4 5 6 7 8 9 10 11 12 13 14 15 16 17 18 19 20 21 22
302
FTUS43 KDLH 041738
TAFHIB
TAF
KHIB 041738Z 0418/0518 30010KT P6SM BKN012 OVC060
     FM042200 30007KT P6SM BKN025
     FM050800 VRB03KT P6SM SCT015 OVC045
     FM051300 VRB04KT 5SM BR OVC050=

USA.gov is the U.S. government's official web portal to all federal, state and local government web resources and services.